sensor_id;sensor_type;location;lat;lon;timestamp;P1;durP1;ratioP1;P2;durP2;ratioP2
2396;SDS011;1209;48.410;9.054;2023-02-12T00:01:32;25.57;;;14.70;;
2396;SDS011;1209;48.410;9.054;2023-02-12T00:03:57;22.53;;;13.40;;
2396;SDS011;1209;48.410;9.054;2023-02-12T00:06:22;23.77;;;13.03;;
2396;SDS011;1209;48.410;9.054;2023-02-12T00:08:51;20.63;;;13.30;;
2396;SDS011;1209;48.410;9.054;2023-02-12T00:11:19;30.10;;;15.00;;
2396;SDS011;1209;48.410;9.054;2023-02-12T00:13:47;26.73;;;14.63;;
2396;SDS011;1209;48.410;9.054;2023-02-12T00:16:14;22.67;;;13.10;;
2396;SDS011;1209;48.410;9.054;2023-02-12T00:18:42;27.02;;;14.40;;
2396;SDS011;1209;48.410;9.054;2023-02-12T00:21:07;24.30;;;14.07;;
2396;SDS011;1209;48.410;9.054;2023-02-12T00:23:33;27.53;;;14.53;;
2396;SDS011;1209;48.410;9.054;2023-02-12T00:25:59;26.75;;;13.63;;
2396;SDS011;1209;48.410;9.054;2023-02-12T00:28:24;26.00;;;13.73;;
2396;SDS011;1209;48.410;9.054;2023-02-12T00:30:50;22.60;;;14.30;;
2396;SDS011;1209;48.410;9.054;2023-02-12T00:33:15;25.17;;;14.30;;
2396;SDS011;1209;48.410;9.054;2023-02-12T00:35:40;25.13;;;13.83;;
2396;SDS011;1209;48.410;9.054;2023-02-12T00:38:06;26.10;;;14.30;;
2396;SDS011;1209;48.410;9.054;2023-02-12T00:40:31;25.57;;;14.80;;
2396;SDS011;1209;48.410;9.054;2023-02-12T00:42:56;26.63;;;13.93;;
2396;SDS011;1209;48.410;9.054;2023-02-12T00:45:22;22.10;;;13.27;;
2396;SDS011;1209;48.410;9.054;2023-02-12T00:47:47;26.33;;;13.57;;
2396;SDS011;1209;48.410;9.054;2023-02-12T00:50:12;21.43;;;13.17;;
2396;SDS011;1209;48.410;9.054;2023-02-12T00:52:38;21.60;;;13.47;;
2396;SDS011;1209;48.410;9.054;2023-02-12T00:55:03;26.00;;;13.37;;
2396;SDS011;1209;48.410;9.054;2023-02-12T00:57:29;22.73;;;13.70;;
2396;SDS011;1209;48.410;9.054;2023-02-12T00:59:54;22.00;;;13.67;;
2396;SDS011;1209;48.410;9.054;2023-02-12T01:02:19;24.00;;;13.57;;
2396;SDS011;1209;48.410;9.054;2023-02-12T01:04:45;17.60;;;12.40;;
2396;SDS011;1209;48.410;9.054;2023-02-12T01:07:10;18.70;;;11.23;;
2396;SDS011;1209;48.410;9.054;2023-02-12T01:09:35;18.13;;;11.10;;
2396;SDS011;1209;48.410;9.054;2023-02-12T01:12:01;23.60;;;13.27;;
2396;SDS011;1209;48.410;9.054;2023-02-12T01:14:26;19.97;;;12.17;;
2396;SDS011;1209;48.410;9.054;2023-02-12T01:16:52;20.00;;;12.57;;
2396;SDS011;1209;48.410;9.054;2023-02-12T01:19:17;24.77;;;12.33;;
2396;SDS011;1209;48.410;9.054;2023-02-12T01:21:42;18.40;;;12.97;;
2396;SDS011;1209;48.410;9.054;2023-02-12T01:24:08;27.07;;;12.83;;
2396;SDS011;1209;48.410;9.054;2023-02-12T01:26:33;18.15;;;12.10;;
2396;SDS011;1209;48.410;9.054;2023-02-12T01:29:00;19.47;;;12.77;;
2396;SDS011;1209;48.410;9.054;2023-02-12T01:31:29;23.90;;;13.40;;
2396;SDS011;1209;48.410;9.054;2023-02-12T01:33:57;21.98;;;13.70;;
2396;SDS011;1209;48.410;9.054;2023-02-12T01:36:23;19.98;;;13.05;;
2396;SDS011;1209;48.410;9.054;2023-02-12T01:38:49;22.87;;;13.97;;
2396;SDS011;1209;48.410;9.054;2023-02-12T01:41:17;22.90;;;11.90;;
2396;SDS011;1209;48.410;9.054;2023-02-12T01:43:45;23.40;;;13.85;;
2396;SDS011;1209;48.410;9.054;2023-02-12T01:46:29;23.20;;;12.27;;
2396;SDS011;1209;48.410;9.054;2023-02-12T01:48:54;25.10;;;13.10;;
2396;SDS011;1209;48.410;9.054;2023-02-12T01:51:19;22.43;;;12.50;;
2396;SDS011;1209;48.410;9.054;2023-02-12T01:53:48;22.70;;;12.00;;
2396;SDS011;1209;48.410;9.054;2023-02-12T01:56:17;18.55;;;11.65;;
2396;SDS011;1209;48.410;9.054;2023-02-12T01:58:43;25.90;;;13.30;;
2396;SDS011;1209;48.410;9.054;2023-02-12T02:01:17;22.20;;;11.20;;
2396;SDS011;1209;48.410;9.054;2023-02-12T02:03:46;27.73;;;13.55;;
2396;SDS011;1209;48.410;9.054;2023-02-12T02:06:17;21.67;;;12.30;;
2396;SDS011;1209;48.410;9.054;2023-02-12T02:08:46;20.27;;;12.82;;
2396;SDS011;1209;48.410;9.054;2023-02-12T02:11:12;23.03;;;14.97;;
2396;SDS011;1209;48.410;9.054;2023-02-12T02:13:56;26.80;;;14.68;;
2396;SDS011;1209;48.410;9.054;2023-02-12T02:16:41;22.58;;;12.70;;
2396;SDS011;1209;48.410;9.054;2023-02-12T02:19:17;24.38;;;12.65;;
2396;SDS011;1209;48.410;9.054;2023-02-12T02:27:29;21.27;;;12.85;;
2396;SDS011;1209;48.410;9.054;2023-02-12T02:38:47;20.10;;;13.07;;
2396;SDS011;1209;48.410;9.054;2023-02-12T02:41:03;22.60;;;13.20;;
2396;SDS011;1209;48.410;9.054;2023-02-12T02:43:58;23.45;;;13.70;;
2396;SDS011;1209;48.410;9.054;2023-02-12T02:46:29;19.63;;;12.43;;
2396;SDS011;1209;48.410;9.054;2023-02-12T02:49:06;20.20;;;13.00;;
2396;SDS011;1209;48.410;9.054;2023-02-12T02:51:39;19.20;;;11.88;;
2396;SDS011;1209;48.410;9.054;2023-02-12T02:54:08;21.17;;;13.50;;
2396;SDS011;1209;48.410;9.054;2023-02-12T02:56:38;21.13;;;12.52;;
2396;SDS011;1209;48.410;9.054;2023-02-12T02:59:12;14.98;;;10.25;;
2396;SDS011;1209;48.410;9.054;2023-02-12T03:01:46;23.92;;;14.70;;
2396;SDS011;1209;48.410;9.054;2023-02-12T03:07:08;18.75;;;12.70;;
2396;SDS011;1209;48.410;9.054;2023-02-12T03:09:46;26.00;;;13.80;;
2396;SDS011;1209;48.410;9.054;2023-02-12T03:12:20;30.30;;;12.68;;
2396;SDS011;1209;48.410;9.054;2023-02-12T03:15:14;21.63;;;14.82;;
2396;SDS011;1209;48.410;9.054;2023-02-12T03:17:48;21.77;;;12.80;;
2396;SDS011;1209;48.410;9.054;2023-02-12T03:20:22;23.42;;;13.10;;
2396;SDS011;1209;48.410;9.054;2023-02-12T03:23:00;24.67;;;14.50;;
2396;SDS011;1209;48.410;9.054;2023-02-12T03:25:34;18.80;;;13.10;;
2396;SDS011;1209;48.410;9.054;2023-02-12T03:28:09;23.25;;;12.45;;
2396;SDS011;1209;48.410;9.054;2023-02-12T03:30:41;24.52;;;12.95;;
2396;SDS011;1209;48.410;9.054;2023-02-12T03:33:28;25.50;;;13.25;;
2396;SDS011;1209;48.410;9.054;2023-02-12T03:36:22;21.77;;;12.85;;
2396;SDS011;1209;48.410;9.054;2023-02-12T03:38:58;18.58;;;11.93;;
2396;SDS011;1209;48.410;9.054;2023-02-12T03:41:46;23.33;;;14.52;;
2396;SDS011;1209;48.410;9.054;2023-02-12T03:44:20;20.38;;;11.80;;
2396;SDS011;1209;48.410;9.054;2023-02-12T03:46:56;22.73;;;14.05;;
2396;SDS011;1209;48.410;9.054;2023-02-12T03:49:29;23.20;;;13.55;;
2396;SDS011;1209;48.410;9.054;2023-02-12T03:52:00;21.67;;;13.82;;
2396;SDS011;1209;48.410;9.054;2023-02-12T03:54:28;17.73;;;11.90;;
2396;SDS011;1209;48.410;9.054;2023-02-12T03:56:57;19.90;;;12.93;;
2396;SDS011;1209;48.410;9.054;2023-02-12T03:59:27;21.80;;;13.85;;
2396;SDS011;1209;48.410;9.054;2023-02-12T04:01:53;19.10;;;11.80;;
2396;SDS011;1209;48.410;9.054;2023-02-12T04:04:21;25.17;;;13.90;;
2396;SDS011;1209;48.410;9.054;2023-02-12T04:06:49;28.73;;;13.88;;
2396;SDS011;1209;48.410;9.054;2023-02-12T04:09:15;19.80;;;11.93;;
2396;SDS011;1209;48.410;9.054;2023-02-12T04:16:47;23.73;;;13.20;;
2396;SDS011;1209;48.410;9.054;2023-02-12T04:19:53;27.08;;;15.07;;
2396;SDS011;1209;48.410;9.054;2023-02-12T04:31:39;24.25;;;13.05;;
2396;SDS011;1209;48.410;9.054;2023-02-12T04:37:35;23.90;;;12.25;;
2396;SDS011;1209;48.410;9.054;2023-02-12T04:40:07;26.25;;;15.18;;
2396;SDS011;1209;48.410;9.054;2023-02-12T04:42:40;21.45;;;13.70;;
2396;SDS011;1209;48.410;9.054;2023-02-12T04:45:09;20.45;;;12.98;;
2396;SDS011;1209;48.410;9.054;2023-02-12T04:47:39;25.25;;;14.07;;
2396;SDS011;1209;48.410;9.054;2023-02-12T04:50:05;22.60;;;14.57;;
2396;SDS011;1209;48.410;9.054;2023-02-12T04:52:31;23.75;;;13.75;;
2396;SDS011;1209;48.410;9.054;2023-02-12T04:54:56;19.63;;;13.83;;
2396;SDS011;1209;48.410;9.054;2023-02-12T04:57:21;18.67;;;13.23;;
2396;SDS011;1209;48.410;9.054;2023-02-12T04:59:47;25.43;;;15.93;;
2396;SDS011;1209;48.410;9.054;2023-02-12T05:02:12;18.50;;;12.93;;
2396;SDS011;1209;48.410;9.054;2023-02-12T05:04:37;25.57;;;12.80;;
2396;SDS011;1209;48.410;9.054;2023-02-12T05:07:02;24.23;;;12.37;;
2396;SDS011;1209;48.410;9.054;2023-02-12T05:09:28;20.80;;;13.90;;
2396;SDS011;1209;48.410;9.054;2023-02-12T05:11:53;21.90;;;13.03;;
2396;SDS011;1209;48.410;9.054;2023-02-12T05:14:18;20.37;;;12.93;;
2396;SDS011;1209;48.410;9.054;2023-02-12T05:16:44;24.20;;;12.27;;
2396;SDS011;1209;48.410;9.054;2023-02-12T05:19:09;19.20;;;12.80;;
2396;SDS011;1209;48.410;9.054;2023-02-12T05:21:35;26.87;;;14.40;;
2396;SDS011;1209;48.410;9.054;2023-02-12T05:24:02;25.42;;;13.88;;
2396;SDS011;1209;48.410;9.054;2023-02-12T05:26:28;20.33;;;11.65;;
2396;SDS011;1209;48.410;9.054;2023-02-12T05:28:53;23.30;;;13.03;;
2396;SDS011;1209;48.410;9.054;2023-02-12T05:31:19;30.73;;;15.77;;
2396;SDS011;1209;48.410;9.054;2023-02-12T05:33:46;23.08;;;13.10;;
2396;SDS011;1209;48.410;9.054;2023-02-12T05:36:15;22.60;;;12.30;;
2396;SDS011;1209;48.410;9.054;2023-02-12T05:38:42;18.48;;;11.73;;
2396;SDS011;1209;48.410;9.054;2023-02-12T05:41:11;17.77;;;11.33;;
2396;SDS011;1209;48.410;9.054;2023-02-12T05:43:48;24.08;;;13.00;;
2396;SDS011;1209;48.410;9.054;2023-02-12T05:46:14;26.98;;;13.55;;
2396;SDS011;1209;48.410;9.054;2023-02-12T05:48:40;22.93;;;14.70;;
2396;SDS011;1209;48.410;9.054;2023-02-12T05:51:06;24.43;;;14.60;;
2396;SDS011;1209;48.410;9.054;2023-02-12T05:53:33;17.20;;;11.80;;
2396;SDS011;1209;48.410;9.054;2023-02-12T05:56:16;19.38;;;13.90;;
2396;SDS011;1209;48.410;9.054;2023-02-12T05:58:44;20.02;;;13.35;;
2396;SDS011;1209;48.410;9.054;2023-02-12T06:01:15;24.55;;;14.40;;
2396;SDS011;1209;48.410;9.054;2023-02-12T06:03:45;18.50;;;12.27;;
2396;SDS011;1209;48.410;9.054;2023-02-12T06:06:11;19.03;;;12.40;;
2396;SDS011;1209;48.410;9.054;2023-02-12T06:08:36;23.00;;;13.60;;
2396;SDS011;1209;48.410;9.054;2023-02-12T06:11:05;22.90;;;13.55;;
2396;SDS011;1209;48.410;9.054;2023-02-12T06:13:32;21.60;;;13.43;;
2396;SDS011;1209;48.410;9.054;2023-02-12T06:15:58;27.07;;;15.97;;
2396;SDS011;1209;48.410;9.054;2023-02-12T06:18:24;25.57;;;14.33;;
2396;SDS011;1209;48.410;9.054;2023-02-12T06:20:49;21.47;;;13.10;;
2396;SDS011;1209;48.410;9.054;2023-02-12T06:23:15;24.23;;;14.33;;
2396;SDS011;1209;48.410;9.054;2023-02-12T06:25:40;25.90;;;14.93;;
2396;SDS011;1209;48.410;9.054;2023-02-12T06:28:06;22.47;;;13.20;;
2396;SDS011;1209;48.410;9.054;2023-02-12T06:30:33;23.73;;;13.17;;
2396;SDS011;1209;48.410;9.054;2023-02-12T06:32:58;24.98;;;13.43;;
2396;SDS011;1209;48.410;9.054;2023-02-12T06:35:25;24.70;;;14.02;;
2396;SDS011;1209;48.410;9.054;2023-02-12T06:37:50;27.93;;;15.20;;
2396;SDS011;1209;48.410;9.054;2023-02-12T06:40:16;25.57;;;14.57;;
2396;SDS011;1209;48.410;9.054;2023-02-12T06:42:41;25.03;;;15.00;;
2396;SDS011;1209;48.410;9.054;2023-02-12T06:45:06;28.43;;;15.30;;
2396;SDS011;1209;48.410;9.054;2023-02-12T06:47:32;27.90;;;16.60;;
2396;SDS011;1209;48.410;9.054;2023-02-12T06:49:57;27.90;;;15.73;;
2396;SDS011;1209;48.410;9.054;2023-02-12T06:52:23;24.67;;;16.40;;
2396;SDS011;1209;48.410;9.054;2023-02-12T06:54:48;26.70;;;15.07;;
2396;SDS011;1209;48.410;9.054;2023-02-12T06:57:14;22.73;;;14.17;;
2396;SDS011;1209;48.410;9.054;2023-02-12T06:59:39;25.03;;;15.03;;
2396;SDS011;1209;48.410;9.054;2023-02-12T07:02:04;24.70;;;14.27;;
2396;SDS011;1209;48.410;9.054;2023-02-12T07:04:30;24.77;;;15.07;;
2396;SDS011;1209;48.410;9.054;2023-02-12T07:06:55;24.50;;;14.90;;
2396;SDS011;1209;48.410;9.054;2023-02-12T07:09:20;26.03;;;15.43;;
2396;SDS011;1209;48.410;9.054;2023-02-12T07:11:45;29.07;;;14.80;;
2396;SDS011;1209;48.410;9.054;2023-02-12T07:14:14;29.70;;;14.80;;
2396;SDS011;1209;48.410;9.054;2023-02-12T07:16:40;23.80;;;14.93;;
2396;SDS011;1209;48.410;9.054;2023-02-12T07:19:05;25.60;;;15.93;;
2396;SDS011;1209;48.410;9.054;2023-02-12T07:21:31;25.90;;;16.07;;
2396;SDS011;1209;48.410;9.054;2023-02-12T07:23:56;28.93;;;18.27;;
2396;SDS011;1209;48.410;9.054;2023-02-12T07:26:21;30.40;;;16.27;;
2396;SDS011;1209;48.410;9.054;2023-02-12T07:28:47;31.10;;;17.00;;
2396;SDS011;1209;48.410;9.054;2023-02-12T07:31:17;25.50;;;15.40;;
2396;SDS011;1209;48.410;9.054;2023-02-12T07:33:44;28.38;;;16.75;;
2396;SDS011;1209;48.410;9.054;2023-02-12T07:36:11;28.70;;;15.87;;
2396;SDS011;1209;48.410;9.054;2023-02-12T07:38:42;30.27;;;16.52;;
2396;SDS011;1209;48.410;9.054;2023-02-12T07:41:08;31.17;;;16.70;;
2396;SDS011;1209;48.410;9.054;2023-02-12T07:43:39;26.95;;;16.80;;
2396;SDS011;1209;48.410;9.054;2023-02-12T07:46:12;26.45;;;16.50;;
2396;SDS011;1209;48.410;9.054;2023-02-12T07:48:41;27.55;;;15.32;;
2396;SDS011;1209;48.410;9.054;2023-02-12T07:51:08;29.67;;;16.52;;
2396;SDS011;1209;48.410;9.054;2023-02-12T07:53:34;28.33;;;15.77;;
2396;SDS011;1209;48.410;9.054;2023-02-12T07:56:19;30.63;;;16.07;;
2396;SDS011;1209;48.410;9.054;2023-02-12T07:58:47;36.88;;;18.98;;
2396;SDS011;1209;48.410;9.054;2023-02-12T08:01:17;29.48;;;17.15;;
2396;SDS011;1209;48.410;9.054;2023-02-12T08:03:48;37.47;;;18.98;;
2396;SDS011;1209;48.410;9.054;2023-02-12T08:06:17;36.78;;;19.33;;
2396;SDS011;1209;48.410;9.054;2023-02-12T08:08:47;36.22;;;19.35;;
2396;SDS011;1209;48.410;9.054;2023-02-12T08:11:14;30.33;;;18.08;;
2396;SDS011;1209;48.410;9.054;2023-02-12T08:13:40;29.87;;;17.90;;
2396;SDS011;1209;48.410;9.054;2023-02-12T08:16:07;29.33;;;17.23;;
2396;SDS011;1209;48.410;9.054;2023-02-12T08:18:34;32.03;;;18.38;;
2396;SDS011;1209;48.410;9.054;2023-02-12T08:21:07;33.30;;;18.33;;
2396;SDS011;1209;48.410;9.054;2023-02-12T08:23:40;29.55;;;18.63;;
2396;SDS011;1209;48.410;9.054;2023-02-12T08:26:13;32.30;;;19.10;;
2396;SDS011;1209;48.410;9.054;2023-02-12T08:28:42;28.88;;;19.27;;
2396;SDS011;1209;48.410;9.054;2023-02-12T08:31:14;27.88;;;18.75;;
2396;SDS011;1209;48.410;9.054;2023-02-12T08:33:43;32.65;;;16.65;;
2396;SDS011;1209;48.410;9.054;2023-02-12T08:36:11;29.50;;;17.67;;
2396;SDS011;1209;48.410;9.054;2023-02-12T08:38:39;32.60;;;19.27;;
2396;SDS011;1209;48.410;9.054;2023-02-12T08:41:10;36.85;;;20.20;;
2396;SDS011;1209;48.410;9.054;2023-02-12T08:43:37;34.22;;;20.20;;
2396;SDS011;1209;48.410;9.054;2023-02-12T08:46:12;34.35;;;20.13;;
2396;SDS011;1209;48.410;9.054;2023-02-12T08:48:40;36.88;;;19.35;;
2396;SDS011;1209;48.410;9.054;2023-02-12T08:51:26;37.75;;;20.40;;
2396;SDS011;1209;48.410;9.054;2023-02-12T08:53:56;35.67;;;19.95;;
2396;SDS011;1209;48.410;9.054;2023-02-12T08:56:24;32.15;;;19.70;;
2396;SDS011;1209;48.410;9.054;2023-02-12T08:58:51;34.95;;;20.50;;
2396;SDS011;1209;48.410;9.054;2023-02-12T09:01:17;31.00;;;22.40;;
2396;SDS011;1209;48.410;9.054;2023-02-12T09:03:45;32.60;;;20.30;;
2396;SDS011;1209;48.410;9.054;2023-02-12T09:06:10;39.03;;;22.00;;
2396;SDS011;1209;48.410;9.054;2023-02-12T09:08:36;38.27;;;20.33;;
2396;SDS011;1209;48.410;9.054;2023-02-12T09:11:06;30.27;;;19.20;;
2396;SDS011;1209;48.410;9.054;2023-02-12T09:13:42;36.05;;;19.00;;
2396;SDS011;1209;48.410;9.054;2023-02-12T09:16:10;36.33;;;19.27;;
2396;SDS011;1209;48.410;9.054;2023-02-12T09:18:36;33.47;;;19.25;;
2396;SDS011;1209;48.410;9.054;2023-02-12T09:21:03;36.03;;;20.50;;
2396;SDS011;1209;48.410;9.054;2023-02-12T09:23:31;33.72;;;20.45;;
2396;SDS011;1209;48.410;9.054;2023-02-12T09:25:57;38.47;;;22.97;;
2396;SDS011;1209;48.410;9.054;2023-02-12T09:28:23;33.47;;;19.42;;
2396;SDS011;1209;48.410;9.054;2023-02-12T09:30:48;36.70;;;21.20;;
2396;SDS011;1209;48.410;9.054;2023-02-12T09:33:14;33.57;;;19.77;;
2396;SDS011;1209;48.410;9.054;2023-02-12T09:35:39;38.17;;;19.23;;
2396;SDS011;1209;48.410;9.054;2023-02-12T09:38:05;34.60;;;18.50;;
2396;SDS011;1209;48.410;9.054;2023-02-12T09:45:59;36.22;;;19.63;;
2396;SDS011;1209;48.410;9.054;2023-02-12T09:48:34;36.53;;;22.35;;
2396;SDS011;1209;48.410;9.054;2023-02-12T09:51:04;26.48;;;18.25;;
2396;SDS011;1209;48.410;9.054;2023-02-12T09:53:33;31.23;;;18.20;;
2396;SDS011;1209;48.410;9.054;2023-02-12T09:56:04;25.45;;;16.08;;
2396;SDS011;1209;48.410;9.054;2023-02-12T09:58:37;30.48;;;17.85;;
2396;SDS011;1209;48.410;9.054;2023-02-12T10:01:12;31.50;;;18.25;;
2396;SDS011;1209;48.410;9.054;2023-02-12T10:03:39;31.92;;;19.73;;
2396;SDS011;1209;48.410;9.054;2023-02-12T10:06:16;30.00;;;18.67;;
2396;SDS011;1209;48.410;9.054;2023-02-12T10:08:46;28.55;;;17.55;;
2396;SDS011;1209;48.410;9.054;2023-02-12T10:11:29;30.83;;;17.55;;
2396;SDS011;1209;48.410;9.054;2023-02-12T10:14:11;24.92;;;15.20;;
2396;SDS011;1209;48.410;9.054;2023-02-12T10:27:55;30.00;;;16.03;;
2396;SDS011;1209;48.410;9.054;2023-02-12T10:30:36;32.33;;;17.20;;
2396;SDS011;1209;48.410;9.054;2023-02-12T10:33:10;30.90;;;15.93;;
2396;SDS011;1209;48.410;9.054;2023-02-12T10:35:42;26.95;;;15.38;;
2396;SDS011;1209;48.410;9.054;2023-02-12T10:38:19;20.30;;;12.30;;
2396;SDS011;1209;48.410;9.054;2023-02-12T10:40:49;25.53;;;14.70;;
2396;SDS011;1209;48.410;9.054;2023-02-12T10:43:14;21.53;;;14.27;;
2396;SDS011;1209;48.410;9.054;2023-02-12T10:45:40;23.30;;;13.67;;
2396;SDS011;1209;48.410;9.054;2023-02-12T10:48:50;21.13;;;12.67;;
2396;SDS011;1209;48.410;9.054;2023-02-12T10:56:16;17.63;;;11.10;;
2396;SDS011;1209;48.410;9.054;2023-02-12T10:58:57;17.57;;;9.30;;
2396;SDS011;1209;48.410;9.054;2023-02-12T11:03:52;11.05;;;6.45;;
2396;SDS011;1209;48.410;9.054;2023-02-12T11:06:20;7.07;;;5.40;;
2396;SDS011;1209;48.410;9.054;2023-02-12T11:08:51;7.60;;;4.80;;
2396;SDS011;1209;48.410;9.054;2023-02-12T11:11:19;10.57;;;7.22;;
2396;SDS011;1209;48.410;9.054;2023-02-12T11:13:59;8.90;;;5.43;;
2396;SDS011;1209;48.410;9.054;2023-02-12T11:18:57;10.10;;;5.13;;
2396;SDS011;1209;48.410;9.054;2023-02-12T11:21:24;9.70;;;5.17;;
2396;SDS011;1209;48.410;9.054;2023-02-12T11:23:50;8.30;;;5.77;;
2396;SDS011;1209;48.410;9.054;2023-02-12T11:28:53;10.70;;;4.22;;
2396;SDS011;1209;48.410;9.054;2023-02-12T11:36:28;6.72;;;3.85;;
2396;SDS011;1209;48.410;9.054;2023-02-12T11:38:55;6.73;;;4.40;;
2396;SDS011;1209;48.410;9.054;2023-02-12T11:43:47;7.53;;;4.40;;
2396;SDS011;1209;48.410;9.054;2023-02-12T11:46:17;5.83;;;4.27;;
2396;SDS011;1209;48.410;9.054;2023-02-12T11:48:45;7.47;;;4.73;;
2396;SDS011;1209;48.410;9.054;2023-02-12T11:51:17;9.90;;;4.50;;
2396;SDS011;1209;48.410;9.054;2023-02-12T11:53:46;7.43;;;4.37;;
2396;SDS011;1209;48.410;9.054;2023-02-12T11:56:14;7.90;;;4.70;;
2396;SDS011;1209;48.410;9.054;2023-02-12T11:58:40;9.70;;;4.83;;
2396;SDS011;1209;48.410;9.054;2023-02-12T12:16:59;8.70;;;6.90;;
2396;SDS011;1209;48.410;9.054;2023-02-12T12:20:04;6.40;;;4.93;;
2396;SDS011;1209;48.410;9.054;2023-02-12T12:22:39;6.27;;;4.53;;
2396;SDS011;1209;48.410;9.054;2023-02-12T12:25:09;6.70;;;5.07;;
2396;SDS011;1209;48.410;9.054;2023-02-12T12:38:47;9.77;;;5.57;;
2396;SDS011;1209;48.410;9.054;2023-02-12T12:44:24;7.67;;;5.63;;
2396;SDS011;1209;48.410;9.054;2023-02-12T12:52:57;6.90;;;4.57;;
2396;SDS011;1209;48.410;9.054;2023-02-12T12:55:35;6.77;;;5.93;;
2396;SDS011;1209;48.410;9.054;2023-02-12T12:58:19;6.23;;;5.13;;
2396;SDS011;1209;48.410;9.054;2023-02-12T13:01:17;7.83;;;5.60;;
2396;SDS011;1209;48.410;9.054;2023-02-12T13:09:56;9.17;;;5.60;;
2396;SDS011;1209;48.410;9.054;2023-02-12T13:16:02;7.90;;;5.53;;
2396;SDS011;1209;48.410;9.054;2023-02-12T13:27:11;9.83;;;5.87;;
2396;SDS011;1209;48.410;9.054;2023-02-12T13:29:47;8.43;;;6.30;;
2396;SDS011;1209;48.410;9.054;2023-02-12T13:32:24;8.60;;;5.20;;
2396;SDS011;1209;48.410;9.054;2023-02-12T13:34:53;8.20;;;5.73;;
2396;SDS011;1209;48.410;9.054;2023-02-12T13:37:31;11.47;;;6.40;;
2396;SDS011;1209;48.410;9.054;2023-02-12T13:40:03;7.33;;;4.80;;
2396;SDS011;1209;48.410;9.054;2023-02-12T13:42:38;4.90;;;3.90;;
2396;SDS011;1209;48.410;9.054;2023-02-12T14:01:54;5.03;;;4.00;;
2396;SDS011;1209;48.410;9.054;2023-02-12T14:07:18;7.10;;;4.70;;
2396;SDS011;1209;48.410;9.054;2023-02-12T14:12:27;6.63;;;4.60;;
2396;SDS011;1209;48.410;9.054;2023-02-12T14:15:04;5.27;;;4.17;;
2396;SDS011;1209;48.410;9.054;2023-02-12T14:20:11;4.33;;;3.93;;
2396;SDS011;1209;48.410;9.054;2023-02-12T14:37:59;5.90;;;4.20;;
2396;SDS011;1209;48.410;9.054;2023-02-12T14:42:57;7.10;;;3.73;;
2396;SDS011;1209;48.410;9.054;2023-02-12T14:45:33;3.10;;;2.60;;
2396;SDS011;1209;48.410;9.054;2023-02-12T14:48:01;5.57;;;4.23;;
2396;SDS011;1209;48.410;9.054;2023-02-12T14:50:30;6.40;;;4.27;;
2396;SDS011;1209;48.410;9.054;2023-02-12T14:53:05;4.23;;;3.80;;
2396;SDS011;1209;48.410;9.054;2023-02-12T14:55:44;3.10;;;2.80;;
2396;SDS011;1209;48.410;9.054;2023-02-12T14:58:18;4.30;;;3.60;;
2396;SDS011;1209;48.410;9.054;2023-02-12T15:00:46;4.40;;;2.87;;
2396;SDS011;1209;48.410;9.054;2023-02-12T15:03:21;2.50;;;2.23;;
2396;SDS011;1209;48.410;9.054;2023-02-12T15:08:42;3.20;;;2.50;;
2396;SDS011;1209;48.410;9.054;2023-02-12T15:11:35;7.93;;;4.60;;
2396;SDS011;1209;48.410;9.054;2023-02-12T15:14:23;12.30;;;6.67;;
2396;SDS011;1209;48.410;9.054;2023-02-12T15:16:54;5.90;;;4.80;;
2396;SDS011;1209;48.410;9.054;2023-02-12T15:22:31;8.97;;;6.53;;
2396;SDS011;1209;48.410;9.054;2023-02-12T15:27:48;2.93;;;2.57;;
2396;SDS011;1209;48.410;9.054;2023-02-12T15:30:23;6.60;;;2.73;;
2396;SDS011;1209;48.410;9.054;2023-02-12T15:32:50;5.47;;;3.30;;
2396;SDS011;1209;48.410;9.054;2023-02-12T15:35:21;4.00;;;3.03;;
2396;SDS011;1209;48.410;9.054;2023-02-12T15:37:48;2.57;;;2.37;;
2396;SDS011;1209;48.410;9.054;2023-02-12T15:40:14;2.67;;;2.27;;
2396;SDS011;1209;48.410;9.054;2023-02-12T15:42:40;3.80;;;2.80;;
2396;SDS011;1209;48.410;9.054;2023-02-12T15:47:44;2.47;;;2.27;;
2396;SDS011;1209;48.410;9.054;2023-02-12T15:50:19;3.33;;;2.73;;
2396;SDS011;1209;48.410;9.054;2023-02-12T15:52:46;2.70;;;2.50;;
2396;SDS011;1209;48.410;9.054;2023-02-12T15:55:15;3.50;;;2.70;;
2396;SDS011;1209;48.410;9.054;2023-02-12T15:57:43;6.07;;;4.40;;
2396;SDS011;1209;48.410;9.054;2023-02-12T16:00:24;2.70;;;2.30;;
2396;SDS011;1209;48.410;9.054;2023-02-12T16:02:52;4.63;;;3.53;;
2396;SDS011;1209;48.410;9.054;2023-02-12T16:05:18;6.83;;;5.10;;
2396;SDS011;1209;48.410;9.054;2023-02-12T16:07:45;5.90;;;4.10;;
2396;SDS011;1209;48.410;9.054;2023-02-12T16:10:13;6.00;;;3.83;;
2396;SDS011;1209;48.410;9.054;2023-02-12T16:12:40;4.93;;;3.93;;
2396;SDS011;1209;48.410;9.054;2023-02-12T16:15:06;4.83;;;3.80;;
2396;SDS011;1209;48.410;9.054;2023-02-12T16:17:34;6.47;;;3.43;;
2396;SDS011;1209;48.410;9.054;2023-02-12T16:22:35;6.43;;;4.07;;
2396;SDS011;1209;48.410;9.054;2023-02-12T16:25:02;6.63;;;5.07;;
2396;SDS011;1209;48.410;9.054;2023-02-12T16:27:37;5.53;;;4.50;;
2396;SDS011;1209;48.410;9.054;2023-02-12T16:30:06;13.87;;;8.73;;
2396;SDS011;1209;48.410;9.054;2023-02-12T16:32:49;5.30;;;4.33;;
2396;SDS011;1209;48.410;9.054;2023-02-12T16:37:41;5.10;;;4.57;;
2396;SDS011;1209;48.410;9.054;2023-02-12T16:42:38;7.40;;;5.30;;
2396;SDS011;1209;48.410;9.054;2023-02-12T16:47:58;4.83;;;3.63;;
2396;SDS011;1209;48.410;9.054;2023-02-12T16:50:48;13.33;;;6.10;;
2396;SDS011;1209;48.410;9.054;2023-02-12T16:53:33;6.60;;;3.70;;
2396;SDS011;1209;48.410;9.054;2023-02-12T16:56:03;6.07;;;4.20;;
2396;SDS011;1209;48.410;9.054;2023-02-12T16:58:29;6.63;;;4.90;;
2396;SDS011;1209;48.410;9.054;2023-02-12T17:00:55;6.00;;;5.10;;
2396;SDS011;1209;48.410;9.054;2023-02-12T17:03:22;8.37;;;5.53;;
2396;SDS011;1209;48.410;9.054;2023-02-12T17:05:48;10.93;;;7.43;;
2396;SDS011;1209;48.410;9.054;2023-02-12T17:08:18;7.70;;;5.00;;
2396;SDS011;1209;48.410;9.054;2023-02-12T17:10:45;11.73;;;7.37;;
2396;SDS011;1209;48.410;9.054;2023-02-12T17:13:14;10.73;;;5.63;;
2396;SDS011;1209;48.410;9.054;2023-02-12T17:15:48;12.75;;;7.28;;
2396;SDS011;1209;48.410;9.054;2023-02-12T17:18:18;5.67;;;4.03;;
2396;SDS011;1209;48.410;9.054;2023-02-12T17:20:45;6.18;;;4.68;;
2396;SDS011;1209;48.410;9.054;2023-02-12T17:23:15;11.63;;;5.43;;
2396;SDS011;1209;48.410;9.054;2023-02-12T17:25:40;7.90;;;4.93;;
2396;SDS011;1209;48.410;9.054;2023-02-12T17:28:05;7.63;;;5.30;;
2396;SDS011;1209;48.410;9.054;2023-02-12T17:30:32;7.50;;;5.10;;
2396;SDS011;1209;48.410;9.054;2023-02-12T17:32:58;6.90;;;4.87;;
2396;SDS011;1209;48.410;9.054;2023-02-12T17:35:23;9.47;;;5.70;;
2396;SDS011;1209;48.410;9.054;2023-02-12T17:37:48;7.93;;;5.30;;
2396;SDS011;1209;48.410;9.054;2023-02-12T17:40:14;7.87;;;5.37;;
2396;SDS011;1209;48.410;9.054;2023-02-12T17:42:40;9.20;;;6.20;;
2396;SDS011;1209;48.410;9.054;2023-02-12T17:45:05;8.30;;;5.53;;
2396;SDS011;1209;48.410;9.054;2023-02-12T17:47:31;8.33;;;5.50;;
2396;SDS011;1209;48.410;9.054;2023-02-12T17:49:58;15.45;;;6.90;;
2396;SDS011;1209;48.410;9.054;2023-02-12T17:52:26;11.67;;;7.00;;
2396;SDS011;1209;48.410;9.054;2023-02-12T17:54:51;10.43;;;6.57;;
2396;SDS011;1209;48.410;9.054;2023-02-12T17:57:16;8.70;;;6.10;;
2396;SDS011;1209;48.410;9.054;2023-02-12T17:59:42;27.90;;;11.97;;
2396;SDS011;1209;48.410;9.054;2023-02-12T18:02:09;13.90;;;8.63;;
2396;SDS011;1209;48.410;9.054;2023-02-12T18:04:35;19.02;;;8.50;;
2396;SDS011;1209;48.410;9.054;2023-02-12T18:07:01;12.87;;;8.13;;
2396;SDS011;1209;48.410;9.054;2023-02-12T18:09:27;16.75;;;8.15;;
2396;SDS011;1209;48.410;9.054;2023-02-12T18:11:53;15.07;;;9.27;;
2396;SDS011;1209;48.410;9.054;2023-02-12T18:14:18;19.90;;;9.30;;
2396;SDS011;1209;48.410;9.054;2023-02-12T18:16:43;29.27;;;17.47;;
2396;SDS011;1209;48.410;9.054;2023-02-12T18:19:09;24.70;;;13.80;;
2396;SDS011;1209;48.410;9.054;2023-02-12T18:21:34;23.53;;;14.10;;